This is the latest recevied weather packets stored in our database for station/object N8QQQ. If no packets are shown the sender has not sent any weather packets the latest 10 day(s).
| Time | Temp. | Humidity | Pressure | Rain* | Wind** | Luminosity | Snow |
|---|---|---|---|---|---|---|---|
| 1777569466 | 1.67° C | 79% | 1015.6 hPa | 0 mm | - | 158 W/m² | - |
| 1777569164 | 1.67° C | 80% | 1015.8 hPa | 0 mm | - | 143 W/m² | - |
| 1777568860 | 1.67° C | 82% | 1015.7 hPa | 0 mm | - | 142 W/m² | - |
| 1777568557 | 1.67° C | 85% | 1015.9 hPa | 0 mm | - | 157 W/m² | - |
| 1777568254 | 2.22° C | 81% | 1015.8 hPa | 0 mm | - | 169 W/m² | - |
| 1777567951 | 1.67° C | 83% | 1015.8 hPa | 0 mm | - | 162 W/m² | - |
| 1777567647 | 1.67° C | 84% | 1015.7 hPa | 0 mm | - | 165 W/m² | - |
| 1777567345 | 1.67° C | 82% | 1015.8 hPa | 1.78 mm | - | 197 W/m² | - |
| 1777567043 | 1.67° C | 90% | 1015.7 hPa | 1.78 mm | - | 202 W/m² | - |
| 1777566740 | 1.67° C | 90% | 1015.9 hPa | 1.27 mm | - | 204 W/m² | - |
| 1777566438 | 1.67° C | 90% | 1016 hPa | 1.27 mm | - | 201 W/m² | - |
| 1777566135 | 1.67° C | 88% | 1015.8 hPa | 1.27 mm | - | 200 W/m² | - |
| 1777565830 | 1.67° C | 90% | 1015.9 hPa | 1.78 mm | - | 190 W/m² | - |
| 1777565527 | 1.67° C | 92% | 1015.7 hPa | 1.78 mm | - | 193 W/m² | - |
| 1777565223 | 1.67° C | 93% | 1015.9 hPa | 1.27 mm | - | 155 W/m² | - |
| 1777564920 | 1.11° C | 92% | 1015.9 hPa | 1.27 mm | - | 156 W/m² | - |
| 1777564615 | 1.11° C | 92% | 1015.8 hPa | 0 mm | - | 154 W/m² | - |
| 1777564310 | 1.11° C | 92% | 1015.7 hPa | 1.78 mm | - | 166 W/m² | - |
| 1777564006 | 1.11° C | 92% | 1015.8 hPa | 1.78 mm | - | 144 W/m² | - |
| 1777563703 | 1.11° C | 90% | 1015.8 hPa | 1.27 mm | - | 137 W/m² | - |
| 1777563399 | 1.11° C | 92% | 1015.7 hPa | 3.05 mm | - | 143 W/m² | - |
| 1777563094 | 1.11° C | 92% | 1016 hPa | 1.78 mm | - | 135 W/m² | - |
| 1777562789 | 1.11° C | 93% | 1015.8 hPa | 1.27 mm | - | 132 W/m² | - |
| 1777562488 | 0.56° C | 92% | 1015.6 hPa | 1.27 mm | - | 119 W/m² | - |
| 1777562185 | 0.56° C | 92% | 1015.8 hPa | 0 mm | - | 113 W/m² | - |
* Rain latest hour (hover to see other rain measurements)
** Current wind speed in m/s (hover to see current wind gust speed)